sensor_id;sensor_type;location;lat;lon;timestamp;pressure;altitude;pressure_sealevel;temperature
15680;BMP180;15488;48.114;11.532;2022-10-31T00:00:45;95837.00;;;20.40
15680;BMP180;15488;48.114;11.532;2022-10-31T00:03:13;95829.00;;;20.40
15680;BMP180;15488;48.114;11.532;2022-10-31T00:05:41;95827.00;;;20.40
15680;BMP180;15488;48.114;11.532;2022-10-31T00:08:10;95835.00;;;20.30
15680;BMP180;15488;48.114;11.532;2022-10-31T00:10:38;95829.00;;;20.30
15680;BMP180;15488;48.114;11.532;2022-10-31T00:13:06;95828.00;;;20.30
15680;BMP180;15488;48.114;11.532;2022-10-31T00:15:34;95831.00;;;20.30
15680;BMP180;15488;48.114;11.532;2022-10-31T00:18:02;95830.00;;;20.30
15680;BMP180;15488;48.114;11.532;2022-10-31T00:20:30;95834.00;;;20.20
15680;BMP180;15488;48.114;11.532;2022-10-31T00:22:58;95851.00;;;20.20
15680;BMP180;15488;48.114;11.532;2022-10-31T00:25:28;95831.00;;;20.20
15680;BMP180;15488;48.114;11.532;2022-10-31T00:27:56;95831.00;;;20.20
15680;BMP180;15488;48.114;11.532;2022-10-31T00:30:23;95825.00;;;20.20
15680;BMP180;15488;48.114;11.532;2022-10-31T00:32:51;95831.00;;;20.20
15680;BMP180;15488;48.114;11.532;2022-10-31T00:35:18;95824.00;;;20.20
15680;BMP180;15488;48.114;11.532;2022-10-31T00:37:48;95824.00;;;20.20
15680;BMP180;15488;48.114;11.532;2022-10-31T00:40:15;95827.00;;;20.20
15680;BMP180;15488;48.114;11.532;2022-10-31T00:42:44;95816.00;;;20.20
15680;BMP180;15488;48.114;11.532;2022-10-31T00:45:12;95823.00;;;20.20
15680;BMP180;15488;48.114;11.532;2022-10-31T00:47:40;95833.00;;;20.20
15680;BMP180;15488;48.114;11.532;2022-10-31T00:50:08;95821.00;;;20.10
15680;BMP180;15488;48.114;11.532;2022-10-31T00:52:36;95821.00;;;20.10
15680;BMP180;15488;48.114;11.532;2022-10-31T00:55:04;95819.00;;;20.10
15680;BMP180;15488;48.114;11.532;2022-10-31T00:57:31;95828.00;;;20.10
15680;BMP180;15488;48.114;11.532;2022-10-31T01:00:00;95820.00;;;20.10
15680;BMP180;15488;48.114;11.532;2022-10-31T01:02:27;95823.00;;;20.10
15680;BMP180;15488;48.114;11.532;2022-10-31T01:04:55;95825.00;;;20.10
15680;BMP180;15488;48.114;11.532;2022-10-31T01:07:22;95819.00;;;20.10
15680;BMP180;15488;48.114;11.532;2022-10-31T01:09:50;95817.00;;;20.00
15680;BMP180;15488;48.114;11.532;2022-10-31T01:12:17;95817.00;;;20.00
15680;BMP180;15488;48.114;11.532;2022-10-31T01:14:45;95820.00;;;20.00
15680;BMP180;15488;48.114;11.532;2022-10-31T01:17:14;95816.00;;;20.00
15680;BMP180;15488;48.114;11.532;2022-10-31T01:19:41;95819.00;;;20.00
15680;BMP180;15488;48.114;11.532;2022-10-31T01:22:09;95812.00;;;20.00
15680;BMP180;15488;48.114;11.532;2022-10-31T01:24:36;95755.00;;;20.00
15680;BMP180;15488;48.114;11.532;2022-10-31T01:27:04;95832.00;;;20.00
15680;BMP180;15488;48.114;11.532;2022-10-31T01:29:31;95828.00;;;20.00
15680;BMP180;15488;48.114;11.532;2022-10-31T01:31:59;95828.00;;;20.00
15680;BMP180;15488;48.114;11.532;2022-10-31T01:34:28;95823.00;;;20.00
15680;BMP180;15488;48.114;11.532;2022-10-31T01:36:55;95818.00;;;20.00
15680;BMP180;15488;48.114;11.532;2022-10-31T01:39:23;95820.00;;;20.00
15680;BMP180;15488;48.114;11.532;2022-10-31T01:41:52;95817.00;;;20.00
15680;BMP180;15488;48.114;11.532;2022-10-31T01:44:52;95822.00;;;20.00
15680;BMP180;15488;48.114;11.532;2022-10-31T01:50:22;95819.00;;;19.90
15680;BMP180;15488;48.114;11.532;2022-10-31T01:52:52;95810.00;;;19.90
15680;BMP180;15488;48.114;11.532;2022-10-31T01:55:23;95815.00;;;19.90
15680;BMP180;15488;48.114;11.532;2022-10-31T01:57:55;95819.00;;;19.90
15680;BMP180;15488;48.114;11.532;2022-10-31T02:00:24;95708.00;;;19.90
15680;BMP180;15488;48.114;11.532;2022-10-31T02:02:51;95811.00;;;19.90
15680;BMP180;15488;48.114;11.532;2022-10-31T02:05:26;95807.00;;;19.90
15680;BMP180;15488;48.114;11.532;2022-10-31T02:07:57;95812.00;;;19.90
15680;BMP180;15488;48.114;11.532;2022-10-31T02:10:25;95802.00;;;19.90
15680;BMP180;15488;48.114;11.532;2022-10-31T02:12:55;95809.00;;;19.80
15680;BMP180;15488;48.114;11.532;2022-10-31T02:15:23;95810.00;;;19.80
15680;BMP180;15488;48.114;11.532;2022-10-31T02:17:51;95809.00;;;19.80
15680;BMP180;15488;48.114;11.532;2022-10-31T02:20:22;95809.00;;;19.80
15680;BMP180;15488;48.114;11.532;2022-10-31T02:23:26;95808.00;;;19.80
15680;BMP180;15488;48.114;11.532;2022-10-31T02:32:21;95812.00;;;19.80
15680;BMP180;15488;48.114;11.532;2022-10-31T02:34:56;95814.00;;;19.80
15680;BMP180;15488;48.114;11.532;2022-10-31T02:37:28;95810.00;;;19.80
15680;BMP180;15488;48.114;11.532;2022-10-31T02:40:04;95706.00;;;19.80
15680;BMP180;15488;48.114;11.532;2022-10-31T02:42:35;95810.00;;;19.80
15680;BMP180;15488;48.114;11.532;2022-10-31T02:45:11;95813.00;;;19.70
15680;BMP180;15488;48.114;11.532;2022-10-31T02:47:42;95809.00;;;19.70
15680;BMP180;15488;48.114;11.532;2022-10-31T02:50:13;95824.00;;;19.70
15680;BMP180;15488;48.114;11.532;2022-10-31T02:52:42;95821.00;;;19.80
15680;BMP180;15488;48.114;11.532;2022-10-31T02:55:54;95816.00;;;19.70
15680;BMP180;15488;48.114;11.532;2022-10-31T02:58:26;95817.00;;;19.70
15680;BMP180;15488;48.114;11.532;2022-10-31T03:01:19;95811.00;;;19.70
15680;BMP180;15488;48.114;11.532;2022-10-31T03:04:01;95816.00;;;19.70
15680;BMP180;15488;48.114;11.532;2022-10-31T03:06:37;95817.00;;;19.60
15680;BMP180;15488;48.114;11.532;2022-10-31T03:09:13;95813.00;;;19.60
15680;BMP180;15488;48.114;11.532;2022-10-31T03:11:49;95815.00;;;19.60
15680;BMP180;15488;48.114;11.532;2022-10-31T03:14:22;95808.00;;;19.60
15680;BMP180;15488;48.114;11.532;2022-10-31T03:16:52;95811.00;;;19.60
15680;BMP180;15488;48.114;11.532;2022-10-31T03:19:25;95814.00;;;19.60
15680;BMP180;15488;48.114;11.532;2022-10-31T03:21:55;95705.00;;;19.60
15680;BMP180;15488;48.114;11.532;2022-10-31T03:24:28;95815.00;;;19.60
15680;BMP180;15488;48.114;11.532;2022-10-31T03:26:59;95808.00;;;19.60
15680;BMP180;15488;48.114;11.532;2022-10-31T03:29:30;95812.00;;;19.60
15680;BMP180;15488;48.114;11.532;2022-10-31T03:32:02;95812.00;;;19.40
15680;BMP180;15488;48.114;11.532;2022-10-31T03:34:33;95809.00;;;19.60
15680;BMP180;15488;48.114;11.532;2022-10-31T03:37:04;95809.00;;;19.60
15680;BMP180;15488;48.114;11.532;2022-10-31T03:39:35;95805.00;;;19.60
15680;BMP180;15488;48.114;11.532;2022-10-31T03:42:07;95807.00;;;19.60
15680;BMP180;15488;48.114;11.532;2022-10-31T03:44:35;95811.00;;;19.60
15680;BMP180;15488;48.114;11.532;2022-10-31T03:47:05;95818.00;;;19.30
15680;BMP180;15488;48.114;11.532;2022-10-31T03:49:34;95803.00;;;19.60
15680;BMP180;15488;48.114;11.532;2022-10-31T03:52:10;95805.00;;;19.60
15680;BMP180;15488;48.114;11.532;2022-10-31T03:54:42;95815.00;;;19.60
15680;BMP180;15488;48.114;11.532;2022-10-31T03:57:15;95806.00;;;19.60
15680;BMP180;15488;48.114;11.532;2022-10-31T03:59:47;95813.00;;;19.60
15680;BMP180;15488;48.114;11.532;2022-10-31T04:02:20;95807.00;;;19.60
15680;BMP180;15488;48.114;11.532;2022-10-31T04:04:51;95807.00;;;19.60
15680;BMP180;15488;48.114;11.532;2022-10-31T04:07:20;95819.00;;;19.50
15680;BMP180;15488;48.114;11.532;2022-10-31T04:09:50;95827.00;;;19.50
15680;BMP180;15488;48.114;11.532;2022-10-31T04:12:20;95814.00;;;19.50
15680;BMP180;15488;48.114;11.532;2022-10-31T04:14:49;95804.00;;;19.50
15680;BMP180;15488;48.114;11.532;2022-10-31T04:17:19;95805.00;;;19.50
15680;BMP180;15488;48.114;11.532;2022-10-31T04:19:50;95804.00;;;19.50
15680;BMP180;15488;48.114;11.532;2022-10-31T04:22:17;95808.00;;;19.50
15680;BMP180;15488;48.114;11.532;2022-10-31T04:24:45;95812.00;;;19.50
15680;BMP180;15488;48.114;11.532;2022-10-31T04:27:12;95815.00;;;19.50
15680;BMP180;15488;48.114;11.532;2022-10-31T04:29:39;95819.00;;;19.50
15680;BMP180;15488;48.114;11.532;2022-10-31T04:32:07;95818.00;;;19.50
15680;BMP180;15488;48.114;11.532;2022-10-31T04:34:34;95818.00;;;19.50
15680;BMP180;15488;48.114;11.532;2022-10-31T04:37:03;95823.00;;;19.40
15680;BMP180;15488;48.114;11.532;2022-10-31T04:39:30;95818.00;;;19.40
15680;BMP180;15488;48.114;11.532;2022-10-31T04:41:58;95813.00;;;19.40
15680;BMP180;15488;48.114;11.532;2022-10-31T04:44:25;95817.00;;;19.40
15680;BMP180;15488;48.114;11.532;2022-10-31T04:46:53;95816.00;;;19.40
15680;BMP180;15488;48.114;11.532;2022-10-31T04:49:20;95820.00;;;19.40
15680;BMP180;15488;48.114;11.532;2022-10-31T04:51:48;95814.00;;;19.40
15680;BMP180;15488;48.114;11.532;2022-10-31T04:54:16;95807.00;;;19.40
15680;BMP180;15488;48.114;11.532;2022-10-31T04:56:44;95810.00;;;19.40
15680;BMP180;15488;48.114;11.532;2022-10-31T04:59:11;95813.00;;;19.30
15680;BMP180;15488;48.114;11.532;2022-10-31T05:01:39;95816.00;;;19.30
15680;BMP180;15488;48.114;11.532;2022-10-31T05:04:06;95812.00;;;19.30
15680;BMP180;15488;48.114;11.532;2022-10-31T05:06:33;95811.00;;;19.30
15680;BMP180;15488;48.114;11.532;2022-10-31T05:09:01;95809.00;;;19.30
15680;BMP180;15488;48.114;11.532;2022-10-31T05:11:30;95814.00;;;19.30
15680;BMP180;15488;48.114;11.532;2022-10-31T05:13:57;95818.00;;;19.20
15680;BMP180;15488;48.114;11.532;2022-10-31T05:16:24;95809.00;;;19.20
15680;BMP180;15488;48.114;11.532;2022-10-31T05:18:52;95802.00;;;19.20
15680;BMP180;15488;48.114;11.532;2022-10-31T05:21:19;95801.00;;;19.20
15680;BMP180;15488;48.114;11.532;2022-10-31T05:23:47;95804.00;;;19.20
15680;BMP180;15488;48.114;11.532;2022-10-31T05:26:14;95804.00;;;19.20
15680;BMP180;15488;48.114;11.532;2022-10-31T05:28:43;95802.00;;;19.10
15680;BMP180;15488;48.114;11.532;2022-10-31T05:31:10;95805.00;;;19.10
15680;BMP180;15488;48.114;11.532;2022-10-31T05:33:38;95805.00;;;19.10
15680;BMP180;15488;48.114;11.532;2022-10-31T05:36:06;95805.00;;;19.10
15680;BMP180;15488;48.114;11.532;2022-10-31T05:38:33;95796.00;;;19.10
15680;BMP180;15488;48.114;11.532;2022-10-31T05:41:00;95791.00;;;19.00
15680;BMP180;15488;48.114;11.532;2022-10-31T05:43:28;95790.00;;;19.00
15680;BMP180;15488;48.114;11.532;2022-10-31T05:45:57;95793.00;;;19.00
15680;BMP180;15488;48.114;11.532;2022-10-31T05:48:24;95795.00;;;19.00
15680;BMP180;15488;48.114;11.532;2022-10-31T05:50:52;95789.00;;;18.90
15680;BMP180;15488;48.114;11.532;2022-10-31T05:53:19;95789.00;;;19.00
15680;BMP180;15488;48.114;11.532;2022-10-31T05:55:47;95780.00;;;18.90
15680;BMP180;15488;48.114;11.532;2022-10-31T05:58:14;95793.00;;;18.90
15680;BMP180;15488;48.114;11.532;2022-10-31T06:00:42;95783.00;;;18.90
15680;BMP180;15488;48.114;11.532;2022-10-31T06:03:10;95789.00;;;18.90
15680;BMP180;15488;48.114;11.532;2022-10-31T06:05:38;95788.00;;;18.90
15680;BMP180;15488;48.114;11.532;2022-10-31T06:08:06;95791.00;;;18.90
15680;BMP180;15488;48.114;11.532;2022-10-31T06:10:33;95793.00;;;18.90
15680;BMP180;15488;48.114;11.532;2022-10-31T06:13:00;95796.00;;;18.90
15680;BMP180;15488;48.114;11.532;2022-10-31T06:15:28;95798.00;;;18.90
15680;BMP180;15488;48.114;11.532;2022-10-31T06:18:00;95739.00;;;18.90
15680;BMP180;15488;48.114;11.532;2022-10-31T06:20:29;95798.00;;;18.90
15680;BMP180;15488;48.114;11.532;2022-10-31T06:22:56;95807.00;;;18.90
15680;BMP180;15488;48.114;11.532;2022-10-31T06:25:24;95801.00;;;18.90
15680;BMP180;15488;48.114;11.532;2022-10-31T06:27:51;95807.00;;;18.90
15680;BMP180;15488;48.114;11.532;2022-10-31T06:30:18;95805.00;;;18.90
15680;BMP180;15488;48.114;11.532;2022-10-31T06:32:46;95812.00;;;18.90
15680;BMP180;15488;48.114;11.532;2022-10-31T06:35:14;95800.00;;;18.90
15680;BMP180;15488;48.114;11.532;2022-10-31T06:37:42;95798.00;;;18.90
15680;BMP180;15488;48.114;11.532;2022-10-31T06:40:11;95793.00;;;18.90
15680;BMP180;15488;48.114;11.532;2022-10-31T06:42:38;95800.00;;;18.90
15680;BMP180;15488;48.114;11.532;2022-10-31T06:45:06;95802.00;;;18.90
15680;BMP180;15488;48.114;11.532;2022-10-31T06:47:34;95797.00;;;18.90
15680;BMP180;15488;48.114;11.532;2022-10-31T06:50:01;95799.00;;;19.00
15680;BMP180;15488;48.114;11.532;2022-10-31T06:52:29;95795.00;;;19.10
15680;BMP180;15488;48.114;11.532;2022-10-31T06:54:57;95797.00;;;19.20
15680;BMP180;15488;48.114;11.532;2022-10-31T06:57:25;95812.00;;;19.30
15680;BMP180;15488;48.114;11.532;2022-10-31T06:59:52;95800.00;;;19.30
15680;BMP180;15488;48.114;11.532;2022-10-31T07:02:20;95802.00;;;19.30
15680;BMP180;15488;48.114;11.532;2022-10-31T07:04:47;95800.00;;;19.30
15680;BMP180;15488;48.114;11.532;2022-10-31T07:07:15;95803.00;;;19.40
15680;BMP180;15488;48.114;11.532;2022-10-31T07:09:42;95804.00;;;19.40
15680;BMP180;15488;48.114;11.532;2022-10-31T07:12:11;95811.00;;;19.40
15680;BMP180;15488;48.114;11.532;2022-10-31T07:14:38;95812.00;;;19.40
15680;BMP180;15488;48.114;11.532;2022-10-31T07:17:06;95811.00;;;19.40
15680;BMP180;15488;48.114;11.532;2022-10-31T07:19:33;95754.00;;;19.40
15680;BMP180;15488;48.114;11.532;2022-10-31T07:22:01;95812.00;;;19.40
15680;BMP180;15488;48.114;11.532;2022-10-31T07:24:28;95806.00;;;19.40
15680;BMP180;15488;48.114;11.532;2022-10-31T07:26:56;95809.00;;;19.50
15680;BMP180;15488;48.114;11.532;2022-10-31T07:29:25;95813.00;;;19.50
15680;BMP180;15488;48.114;11.532;2022-10-31T07:31:52;95816.00;;;19.60
15680;BMP180;15488;48.114;11.532;2022-10-31T07:34:20;95813.00;;;19.60
15680;BMP180;15488;48.114;11.532;2022-10-31T07:36:47;95815.00;;;19.60
15680;BMP180;15488;48.114;11.532;2022-10-31T07:39:14;95818.00;;;19.60
15680;BMP180;15488;48.114;11.532;2022-10-31T07:41:42;95812.00;;;19.60
15680;BMP180;15488;48.114;11.532;2022-10-31T07:44:09;95812.00;;;19.70
15680;BMP180;15488;48.114;11.532;2022-10-31T07:46:38;95814.00;;;19.70
15680;BMP180;15488;48.114;11.532;2022-10-31T07:49:05;95809.00;;;19.70
15680;BMP180;15488;48.114;11.532;2022-10-31T07:51:33;95806.00;;;19.80
15680;BMP180;15488;48.114;11.532;2022-10-31T07:54:00;95804.00;;;19.80
15680;BMP180;15488;48.114;11.532;2022-10-31T07:56:28;95804.00;;;19.80
15680;BMP180;15488;48.114;11.532;2022-10-31T07:58:55;95796.00;;;19.90
15680;BMP180;15488;48.114;11.532;2022-10-31T08:01:23;95802.00;;;19.90
15680;BMP180;15488;48.114;11.532;2022-10-31T08:03:52;95804.00;;;20.00
15680;BMP180;15488;48.114;11.532;2022-10-31T08:06:19;95797.00;;;20.00
15680;BMP180;15488;48.114;11.532;2022-10-31T08:08:46;95794.00;;;20.10
15680;BMP180;15488;48.114;11.532;2022-10-31T08:11:14;95793.00;;;20.10
15680;BMP180;15488;48.114;11.532;2022-10-31T08:13:41;95793.00;;;20.10
15680;BMP180;15488;48.114;11.532;2022-10-31T08:16:09;95788.00;;;20.20
15680;BMP180;15488;48.114;11.532;2022-10-31T08:18:37;95792.00;;;20.20
15680;BMP180;15488;48.114;11.532;2022-10-31T08:21:06;95789.00;;;20.30
15680;BMP180;15488;48.114;11.532;2022-10-31T08:23:33;95788.00;;;20.30
15680;BMP180;15488;48.114;11.532;2022-10-31T08:26:00;95793.00;;;20.30
15680;BMP180;15488;48.114;11.532;2022-10-31T08:28:28;95780.00;;;20.40
15680;BMP180;15488;48.114;11.532;2022-10-31T08:30:58;95781.00;;;20.40
15680;BMP180;15488;48.114;11.532;2022-10-31T08:33:25;95775.00;;;20.50
15680;BMP180;15488;48.114;11.532;2022-10-31T08:35:52;95783.00;;;20.50
15680;BMP180;15488;48.114;11.532;2022-10-31T08:38:21;95775.00;;;20.60
15680;BMP180;15488;48.114;11.532;2022-10-31T08:40:49;95774.00;;;20.60
15680;BMP180;15488;48.114;11.532;2022-10-31T08:43:17;95768.00;;;20.70
15680;BMP180;15488;48.114;11.532;2022-10-31T08:45:48;95762.00;;;20.70
15680;BMP180;15488;48.114;11.532;2022-10-31T08:48:16;95761.00;;;20.80
15680;BMP180;15488;48.114;11.532;2022-10-31T08:50:45;95762.00;;;20.80
15680;BMP180;15488;48.114;11.532;2022-10-31T08:53:13;95767.00;;;20.90
15680;BMP180;15488;48.114;11.532;2022-10-31T08:55:43;95761.00;;;20.90
15680;BMP180;15488;48.114;11.532;2022-10-31T08:58:13;95752.00;;;21.00
15680;BMP180;15488;48.114;11.532;2022-10-31T09:00:41;95707.00;;;21.00
15680;BMP180;15488;48.114;11.532;2022-10-31T09:03:12;95748.00;;;21.10
15680;BMP180;15488;48.114;11.532;2022-10-31T09:05:40;95749.00;;;21.20
15680;BMP180;15488;48.114;11.532;2022-10-31T09:08:08;95747.00;;;21.20
15680;BMP180;15488;48.114;11.532;2022-10-31T09:10:36;95741.00;;;21.30
15680;BMP180;15488;48.114;11.532;2022-10-31T09:13:10;95747.00;;;21.30
15680;BMP180;15488;48.114;11.532;2022-10-31T09:15:39;95751.00;;;21.50
15680;BMP180;15488;48.114;11.532;2022-10-31T09:18:08;95735.00;;;21.50
15680;BMP180;15488;48.114;11.532;2022-10-31T09:20:36;95735.00;;;21.60
15680;BMP180;15488;48.114;11.532;2022-10-31T09:23:06;95731.00;;;21.60
15680;BMP180;15488;48.114;11.532;2022-10-31T09:25:34;95725.00;;;21.70
15680;BMP180;15488;48.114;11.532;2022-10-31T09:28:03;95723.00;;;21.70
15680;BMP180;15488;48.114;11.532;2022-10-31T09:30:33;95720.00;;;21.80
15680;BMP180;15488;48.114;11.532;2022-10-31T09:33:02;95731.00;;;21.80
15680;BMP180;15488;48.114;11.532;2022-10-31T09:35:30;95717.00;;;21.70
15680;BMP180;15488;48.114;11.532;2022-10-31T09:37:58;95722.00;;;22.00
15680;BMP180;15488;48.114;11.532;2022-10-31T09:40:31;95723.00;;;22.10
15680;BMP180;15488;48.114;11.532;2022-10-31T09:43:06;95720.00;;;22.20
15680;BMP180;15488;48.114;11.532;2022-10-31T09:45:42;95723.00;;;22.20
15680;BMP180;15488;48.114;11.532;2022-10-31T09:48:27;95716.00;;;22.30
15680;BMP180;15488;48.114;11.532;2022-10-31T09:51:00;95707.00;;;22.40
15680;BMP180;15488;48.114;11.532;2022-10-31T09:53:36;95709.00;;;22.50
15680;BMP180;15488;48.114;11.532;2022-10-31T09:56:07;95709.00;;;22.60
15680;BMP180;15488;48.114;11.532;2022-10-31T09:58:42;95707.00;;;22.70
15680;BMP180;15488;48.114;11.532;2022-10-31T10:01:34;95699.00;;;22.70
15680;BMP180;15488;48.114;11.532;2022-10-31T10:04:05;95709.00;;;22.90
15680;BMP180;15488;48.114;11.532;2022-10-31T10:06:41;95701.00;;;22.90
15680;BMP180;15488;48.114;11.532;2022-10-31T10:09:11;95702.00;;;23.00
15680;BMP180;15488;48.114;11.532;2022-10-31T10:11:51;95694.00;;;23.10
15680;BMP180;15488;48.114;11.532;2022-10-31T10:14:41;95698.00;;;23.20
15680;BMP180;15488;48.114;11.532;2022-10-31T10:17:18;95694.00;;;23.30
15680;BMP180;15488;48.114;11.532;2022-10-31T10:19:58;95692.00;;;23.30
15680;BMP180;15488;48.114;11.532;2022-10-31T10:22:36;95696.00;;;23.40
15680;BMP180;15488;48.114;11.532;2022-10-31T10:25:16;95709.00;;;23.50
15680;BMP180;15488;48.114;11.532;2022-10-31T10:27:50;95692.00;;;23.60
15680;BMP180;15488;48.114;11.532;2022-10-31T10:30:21;95698.00;;;23.70
15680;BMP180;15488;48.114;11.532;2022-10-31T10:32:52;95605.00;;;23.80
15680;BMP180;15488;48.114;11.532;2022-10-31T10:35:24;95686.00;;;23.80
15680;BMP180;15488;48.114;11.532;2022-10-31T10:37:57;95678.00;;;23.90
15680;BMP180;15488;48.114;11.532;2022-10-31T10:40:27;95684.00;;;24.00
15680;BMP180;15488;48.114;11.532;2022-10-31T10:43:01;95680.00;;;24.10
15680;BMP180;15488;48.114;11.532;2022-10-31T10:46:03;95673.00;;;24.20
15680;BMP180;15488;48.114;11.532;2022-10-31T10:48:54;95674.00;;;24.20
15680;BMP180;15488;48.114;11.532;2022-10-31T10:51:30;95672.00;;;24.30
15680;BMP180;15488;48.114;11.532;2022-10-31T10:54:22;95666.00;;;24.40
15680;BMP180;15488;48.114;11.532;2022-10-31T10:56:59;95661.00;;;24.50
15680;BMP180;15488;48.114;11.532;2022-10-31T10:59:29;95659.00;;;24.50
15680;BMP180;15488;48.114;11.532;2022-10-31T11:01:58;95658.00;;;24.60
15680;BMP180;15488;48.114;11.532;2022-10-31T11:04:32;95651.00;;;24.70
15680;BMP180;15488;48.114;11.532;2022-10-31T11:07:03;95655.00;;;24.70
15680;BMP180;15488;48.114;11.532;2022-10-31T11:09:31;95643.00;;;24.80
15680;BMP180;15488;48.114;11.532;2022-10-31T11:11:58;95645.00;;;24.90
15680;BMP180;15488;48.114;11.532;2022-10-31T11:14:27;95639.00;;;24.90
15680;BMP180;15488;48.114;11.532;2022-10-31T11:17:06;95644.00;;;25.00
15680;BMP180;15488;48.114;11.532;2022-10-31T11:19:36;95643.00;;;25.10
15680;BMP180;15488;48.114;11.532;2022-10-31T11:22:07;95645.00;;;25.10
15680;BMP180;15488;48.114;11.532;2022-10-31T11:24:39;95643.00;;;25.20
15680;BMP180;15488;48.114;11.532;2022-10-31T11:27:14;95636.00;;;25.40
15680;BMP180;15488;48.114;11.532;2022-10-31T11:29:42;95634.00;;;25.40
15680;BMP180;15488;48.114;11.532;2022-10-31T11:32:19;95626.00;;;25.50
15680;BMP180;15488;48.114;11.532;2022-10-31T11:34:51;95627.00;;;25.60
15680;BMP180;15488;48.114;11.532;2022-10-31T11:37:21;95625.00;;;25.70
15680;BMP180;15488;48.114;11.532;2022-10-31T11:39:52;95627.00;;;25.80
15680;BMP180;15488;48.114;11.532;2022-10-31T11:42:22;95618.00;;;25.90
15680;BMP180;15488;48.114;11.532;2022-10-31T11:44:51;95612.00;;;25.90
15680;BMP180;15488;48.114;11.532;2022-10-31T11:47:25;95608.00;;;26.00
15680;BMP180;15488;48.114;11.532;2022-10-31T11:49:56;95613.00;;;26.10
15680;BMP180;15488;48.114;11.532;2022-10-31T11:52:26;95605.00;;;26.20
15680;BMP180;15488;48.114;11.532;2022-10-31T11:54:55;95604.00;;;26.20
15680;BMP180;15488;48.114;11.532;2022-10-31T11:57:26;95601.00;;;26.30
15680;BMP180;15488;48.114;11.532;2022-10-31T11:59:56;95607.00;;;26.30
15680;BMP180;15488;48.114;11.532;2022-10-31T12:02:26;95601.00;;;26.30
15680;BMP180;15488;48.114;11.532;2022-10-31T12:05:02;95596.00;;;26.40
15680;BMP180;15488;48.114;11.532;2022-10-31T12:07:31;95588.00;;;26.40
15680;BMP180;15488;48.114;11.532;2022-10-31T12:09:58;95591.00;;;26.40
15680;BMP180;15488;48.114;11.532;2022-10-31T12:12:40;95587.00;;;26.40
15680;BMP180;15488;48.114;11.532;2022-10-31T12:15:39;95582.00;;;26.40
15680;BMP180;15488;48.114;11.532;2022-10-31T12:18:43;95583.00;;;26.40
15680;BMP180;15488;48.114;11.532;2022-10-31T12:21:25;95586.00;;;26.40
15680;BMP180;15488;48.114;11.532;2022-10-31T12:24:01;95585.00;;;26.30
15680;BMP180;15488;48.114;11.532;2022-10-31T12:26:34;95588.00;;;26.30
15680;BMP180;15488;48.114;11.532;2022-10-31T12:29:25;95582.00;;;26.30
15680;BMP180;15488;48.114;11.532;2022-10-31T12:32:17;95572.00;;;26.30
15680;BMP180;15488;48.114;11.532;2022-10-31T12:40:48;95575.00;;;26.30
15680;BMP180;15488;48.114;11.532;2022-10-31T12:43:28;95576.00;;;26.30
15680;BMP180;15488;48.114;11.532;2022-10-31T12:45:58;95574.00;;;26.40
15680;BMP180;15488;48.114;11.532;2022-10-31T12:48:52;95567.00;;;26.50
15680;BMP180;15488;48.114;11.532;2022-10-31T12:51:28;95556.00;;;26.60
15680;BMP180;15488;48.114;11.532;2022-10-31T12:54:20;95554.00;;;26.70
15680;BMP180;15488;48.114;11.532;2022-10-31T12:56:57;95547.00;;;26.80
15680;BMP180;15488;48.114;11.532;2022-10-31T12:59:32;95539.00;;;27.00
15680;BMP180;15488;48.114;11.532;2022-10-31T13:02:04;95538.00;;;27.20
15680;BMP180;15488;48.114;11.532;2022-10-31T13:04:42;95536.00;;;27.50
15680;BMP180;15488;48.114;11.532;2022-10-31T13:07:13;95536.00;;;27.80
15680;BMP180;15488;48.114;11.532;2022-10-31T13:09:54;95528.00;;;28.00
15680;BMP180;15488;48.114;11.532;2022-10-31T13:12:24;95529.00;;;28.20
15680;BMP180;15488;48.114;11.532;2022-10-31T13:14:55;95535.00;;;28.30
15680;BMP180;15488;48.114;11.532;2022-10-31T13:17:29;95528.00;;;28.50
15680;BMP180;15488;48.114;11.532;2022-10-31T13:20:11;95525.00;;;28.70
15680;BMP180;15488;48.114;11.532;2022-10-31T13:22:43;95519.00;;;28.70
15680;BMP180;15488;48.114;11.532;2022-10-31T13:25:16;95524.00;;;28.80
15680;BMP180;15488;48.114;11.532;2022-10-31T13:27:50;95518.00;;;28.80
15680;BMP180;15488;48.114;11.532;2022-10-31T13:30:20;95512.00;;;28.70
15680;BMP180;15488;48.114;11.532;2022-10-31T13:32:51;95511.00;;;28.70
15680;BMP180;15488;48.114;11.532;2022-10-31T13:35:26;95506.00;;;28.60
15680;BMP180;15488;48.114;11.532;2022-10-31T13:38:12;95514.00;;;28.60
15680;BMP180;15488;48.114;11.532;2022-10-31T13:40:49;95510.00;;;28.50
15680;BMP180;15488;48.114;11.532;2022-10-31T13:43:23;95507.00;;;28.40
15680;BMP180;15488;48.114;11.532;2022-10-31T13:45:55;95513.00;;;28.30
15680;BMP180;15488;48.114;11.532;2022-10-31T13:48:39;95502.00;;;28.20
15680;BMP180;15488;48.114;11.532;2022-10-31T13:51:10;95505.00;;;28.10
15680;BMP180;15488;48.114;11.532;2022-10-31T13:53:40;95501.00;;;28.00
15680;BMP180;15488;48.114;11.532;2022-10-31T13:56:20;95498.00;;;27.90
15680;BMP180;15488;48.114;11.532;2022-10-31T13:59:19;95503.00;;;27.80
15680;BMP180;15488;48.114;11.532;2022-10-31T14:01:50;95506.00;;;27.70
15680;BMP180;15488;48.114;11.532;2022-10-31T14:04:20;95503.00;;;27.60
15680;BMP180;15488;48.114;11.532;2022-10-31T14:06:54;95498.00;;;27.50
15680;BMP180;15488;48.114;11.532;2022-10-31T14:09:30;95484.00;;;27.60
15680;BMP180;15488;48.114;11.532;2022-10-31T14:12:03;95480.00;;;27.70
15680;BMP180;15488;48.114;11.532;2022-10-31T14:14:43;95493.00;;;27.90
15680;BMP180;15488;48.114;11.532;2022-10-31T14:17:19;95481.00;;;28.30
15680;BMP180;15488;48.114;11.532;2022-10-31T14:20:22;95483.00;;;28.70
15680;BMP180;15488;48.114;11.532;2022-10-31T14:22:51;95484.00;;;29.20
15680;BMP180;15488;48.114;11.532;2022-10-31T14:25:30;95486.00;;;29.60
15680;BMP180;15488;48.114;11.532;2022-10-31T14:28:00;95472.00;;;29.90
15680;BMP180;15488;48.114;11.532;2022-10-31T14:30:29;95468.00;;;30.10
15680;BMP180;15488;48.114;11.532;2022-10-31T14:33:01;95464.00;;;30.30
15680;BMP180;15488;48.114;11.532;2022-10-31T14:35:50;95466.00;;;30.30